Irvington, Illinois
Current Conditions -  °F | °C
As of 10:15 AM on Wednesday 22 Oct 2014 (Local Time) from KENL Reporting Station
Clear Clear  
Wind Chill: 53°   Ceiling: Unl
Heat Index: 53°   Visibility: 10mi
Dew Point: 41°   Wind: 6mph
Humidity: 65%   Direction: 110°ESE
Pressure: 30.33"   Gusts: NA
Location:  38.44°N, 89.16°W
Report Text: KENL 221515Z AUTO 11005KT 10SM CLR 11/05 A3033 RMK AO2 T01140051
Loading
Personal Weather Stations






























Interactive Weather Map
Tropical Storm Tracking
New forecast layout! Learn more

10-Day Weather Forecast

Advertisements
Track Severe Weather on mobile